Time;durP1;ratioP1;P1;durP2;ratioP2;P2;SDS_P1;SDS_P2;PMS_P1;PMS_P2;Temp;Humidity;BMP_temperature;BMP_pressure;BME280_temperature;BME280_humidity;BME280_pressure;Samples;Min_cycle;Max_cycle;Signal;HPM_P1;HPM_P2
2023/01/26 00:02:10;;;;;;;126.10;61.17;;;;;;;;;;5038318;28;20419;-72
2023/01/26 00:04:36;;;;;;;125.80;58.37;;;;;;;;;;5038248;28;20186;-71
2023/01/26 00:07:02;;;;;;;131.37;61.73;;;;;;;;;;5038030;28;20193;-71
2023/01/26 00:09:28;;;;;;;134.27;62.20;;;;;;;;;;5038030;28;20253;-72
2023/01/26 00:11:54;;;;;;;128.03;60.77;;;;;;;;;;5038433;28;20236;-71
2023/01/26 00:14:20;;;;;;;126.53;60.40;;;;;;;;;;5055790;28;20174;-71
2023/01/26 00:16:45;;;;;;;132.03;61.73;;;;;;;;;;5054936;28;20178;-71
2023/01/26 00:19:11;;;;;;;136.60;65.33;;;;;;;;;;5055872;28;20187;-72
2023/01/26 00:21:37;;;;;;;135.50;62.40;;;;;;;;;;5037658;28;20252;-71
2023/01/26 00:24:03;;;;;;;136.07;63.87;;;;;;;;;;5037569;28;20179;-72
2023/01/26 00:26:30;;;;;;;140.67;66.73;;;;;;;;;;5055229;28;20496;-71
2023/01/26 00:28:56;;;;;;;143.23;64.87;;;;;;;;;;5037591;28;20458;-73
2023/01/26 00:31:26;;;;;;;139.90;66.00;;;;;;;;;;5055195;28;20931;-71
2023/01/26 00:33:53;;;;;;;139.50;63.70;;;;;;;;;;5055613;28;20641;-72
2023/01/26 00:36:19;;;;;;;136.17;65.17;;;;;;;;;;5037312;28;20409;-72
2023/01/26 00:38:45;;;;;;;146.53;67.13;;;;;;;;;;5054874;28;21017;-71
2023/01/26 00:42:05;;;;;;;144.63;65.43;;;;;;;;;;5054698;28;20479;-72
2023/01/26 00:43:57;;;;;;;146.57;64.53;;;;;;;;;;5054260;28;20903;-71
2023/01/26 00:46:23;;;;;;;147.63;63.90;;;;;;;;;;5054808;28;20413;-71
2023/01/26 00:48:49;;;;;;;138.93;62.30;;;;;;;;;;5054400;28;20185;-71
2023/01/26 00:51:15;;;;;;;137.13;63.53;;;;;;;;;;5036491;28;20218;-71
2023/01/26 00:53:41;;;;;;;141.40;61.57;;;;;;;;;;5054563;28;20585;-71
2023/01/26 00:56:07;;;;;;;138.03;58.47;;;;;;;;;;5054565;28;20632;-71
2023/01/26 00:58:33;;;;;;;136.57;58.90;;;;;;;;;;5054206;28;20181;-71
2023/01/26 01:00:59;;;;;;;130.83;57.20;;;;;;;;;;5054696;28;20797;-71
2023/01/26 01:03:25;;;;;;;135.30;61.57;;;;;;;;;;5055092;28;20543;-71
2023/01/26 01:05:51;;;;;;;138.57;59.43;;;;;;;;;;5054197;28;20628;-70
2023/01/26 01:08:17;;;;;;;140.10;59.50;;;;;;;;;;5054299;28;20182;-71
2023/01/26 01:10:43;;;;;;;140.73;57.77;;;;;;;;;;5054328;28;21081;-71
2023/01/26 01:13:09;;;;;;;136.90;61.23;;;;;;;;;;5053871;28;20203;-71
2023/01/26 01:15:37;;;;;;;141.50;57.80;;;;;;;;;;5054114;28;20593;-70
2023/01/26 01:18:03;;;;;;;138.57;57.27;;;;;;;;;;5035960;28;20642;-71
2023/01/26 01:20:29;;;;;;;140.93;61.17;;;;;;;;;;5054149;28;20451;-71
2023/01/26 01:22:55;;;;;;;138.07;58.70;;;;;;;;;;5053936;28;20179;-71
2023/01/26 01:25:21;;;;;;;137.00;58.07;;;;;;;;;;5054022;28;20206;-72
2023/01/26 01:27:47;;;;;;;140.80;59.20;;;;;;;;;;5053514;28;20178;-71
2023/01/26 01:30:13;;;;;;;143.67;60.60;;;;;;;;;;5035561;28;20221;-71
2023/01/26 01:32:39;;;;;;;151.00;61.63;;;;;;;;;;5053723;28;20178;-71
2023/01/26 01:35:05;;;;;;;142.80;62.50;;;;;;;;;;5054123;28;20806;-71
2023/01/26 01:37:32;;;;;;;136.30;60.40;;;;;;;;;;5035612;28;20179;-71
2023/01/26 01:39:58;;;;;;;149.97;60.30;;;;;;;;;;5035646;28;20559;-72
2023/01/26 01:42:24;;;;;;;153.70;63.43;;;;;;;;;;5053896;28;20896;-70
2023/01/26 01:45:09;;;;;;;145.03;59.43;;;;;;;;;;5053972;28;20542;-71
2023/01/26 01:47:35;;;;;;;142.60;60.37;;;;;;;;;;5054224;28;20441;-70
2023/01/26 01:50:03;;;;;;;146.53;59.60;;;;;;;;;;5038009;28;20487;-71
2023/01/26 01:52:30;;;;;;;139.20;58.17;;;;;;;;;;5057590;28;20393;-71
2023/01/26 01:55:00;;;;;;;137.80;57.03;;;;;;;;;;5056879;28;20409;-71
2023/01/26 01:57:29;;;;;;;147.93;58.70;;;;;;;;;;5037159;28;20432;-72
2023/01/26 02:00:05;;;;;;;136.53;58.57;;;;;;;;;;5053245;28;20428;-71
2023/01/26 02:02:31;;;;;;;144.77;61.27;;;;;;;;;;5053260;28;20879;-71
2023/01/26 02:05:00;;;;;;;150.07;58.30;;;;;;;;;;5053160;28;20412;-71
2023/01/26 02:07:27;;;;;;;138.40;58.83;;;;;;;;;;5035368;28;20417;-71
2023/01/26 02:12:38;;;;;;;154.10;59.50;;;;;;;;;;5053304;28;20388;-71
2023/01/26 02:15:05;;;;;;;147.03;57.10;;;;;;;;;;5053032;28;20417;-71
2023/01/26 02:17:31;;;;;;;143.67;59.33;;;;;;;;;;5053079;28;20461;-71
2023/01/26 02:20:03;;;;;;;155.07;60.53;;;;;;;;;;5035088;28;20436;-71
2023/01/26 02:22:29;;;;;;;151.10;59.80;;;;;;;;;;5053182;28;20393;-71
2023/01/26 02:24:57;;;;;;;152.10;59.63;;;;;;;;;;5053006;28;20417;-71
2023/01/26 02:27:23;;;;;;;153.87;62.03;;;;;;;;;;5035314;28;20312;-71
2023/01/26 02:29:49;;;;;;;156.03;60.27;;;;;;;;;;5052850;28;20560;-71
2023/01/26 02:32:15;;;;;;;161.87;64.13;;;;;;;;;;5053028;28;20181;-71
2023/01/26 02:34:41;;;;;;;160.17;64.67;;;;;;;;;;5035053;28;20417;-71
2023/01/26 02:37:13;;;;;;;145.53;60.93;;;;;;;;;;5052852;28;20549;-71
2023/01/26 02:39:49;;;;;;;157.57;59.23;;;;;;;;;;5054635;28;20578;-71
2023/01/26 02:44:59;;;;;;;152.00;62.13;;;;;;;;;;5057361;28;20391;-71
2023/01/26 02:47:25;;;;;;;142.87;59.33;;;;;;;;;;5056601;28;20491;-71
2023/01/26 02:49:51;;;;;;;148.10;61.53;;;;;;;;;;5038779;28;20573;-72
2023/01/26 02:52:19;;;;;;;142.70;60.10;;;;;;;;;;5056621;28;20216;-71
2023/01/26 02:57:29;;;;;;;135.20;58.30;;;;;;;;;;5056899;28;20918;-71
2023/01/26 02:59:55;;;;;;;138.30;57.50;;;;;;;;;;5038573;28;20464;-71
2023/01/26 03:02:22;;;;;;;142.47;59.83;;;;;;;;;;5038789;28;20261;-70
2023/01/26 03:04:47;;;;;;;143.30;59.87;;;;;;;;;;5056563;28;20181;-70
2023/01/26 03:07:13;;;;;;;148.63;61.70;;;;;;;;;;5056908;28;20405;-71
2023/01/26 03:09:39;;;;;;;147.60;58.43;;;;;;;;;;5039086;28;20216;-70
2023/01/26 03:12:06;;;;;;;149.67;61.40;;;;;;;;;;5058209;28;20209;-70
2023/01/26 03:14:31;;;;;;;150.70;60.30;;;;;;;;;;5056226;28;20178;-70
2023/01/26 03:16:57;;;;;;;148.60;60.40;;;;;;;;;;5038269;28;20440;-71
2023/01/26 03:27:48;;;;;;;151.30;62.20;;;;;;;;;;5056494;28;20440;-70
2023/01/26 03:30:15;;;;;;;152.13;61.67;;;;;;;;;;5056194;28;20842;-70
2023/01/26 03:32:41;;;;;;;150.77;61.70;;;;;;;;;;5038093;28;20413;-69
2023/01/26 03:35:14;;;;;;;159.07;64.03;;;;;;;;;;5055846;28;20839;-70
2023/01/26 03:37:42;;;;;;;161.23;64.93;;;;;;;;;;5038030;28;20170;-69
2023/01/26 03:56:36;;;;;;;152.53;61.87;;;;;;;;;;5055645;28;20815;-71
2023/01/26 03:59:11;;;;;;;144.27;60.27;;;;;;;;;;5055670;28;20421;-71
2023/01/26 04:09:58;;;;;;;151.03;60.77;;;;;;;;;;5055636;28;21043;-70
2023/01/26 04:12:24;;;;;;;160.53;62.60;;;;;;;;;;5037244;28;20509;-71
2023/01/26 04:23:03;;;;;;;147.97;60.23;;;;;;;;;;5055418;28;20395;-71
2023/01/26 04:25:29;;;;;;;149.37;57.63;;;;;;;;;;5055142;28;20413;-71
2023/01/26 04:27:55;;;;;;;145.67;59.37;;;;;;;;;;5054683;28;20174;-70
2023/01/26 04:30:21;;;;;;;160.60;60.40;;;;;;;;;;5036807;28;20218;-69
2023/01/26 04:32:47;;;;;;;147.03;55.90;;;;;;;;;;5054741;28;20175;-70
2023/01/26 04:35:13;;;;;;;141.53;55.70;;;;;;;;;;5036855;28;20309;-70
2023/01/26 04:37:39;;;;;;;141.37;54.23;;;;;;;;;;5054893;28;20186;-70
2023/01/26 04:40:06;;;;;;;131.23;50.80;;;;;;;;;;5036633;28;20209;-71
2023/01/26 04:42:32;;;;;;;145.00;54.20;;;;;;;;;;5054546;28;20184;-70
2023/01/26 04:44:58;;;;;;;137.03;53.83;;;;;;;;;;5036563;28;20431;-70
2023/01/26 04:47:23;;;;;;;136.97;53.37;;;;;;;;;;5054748;28;20659;-70
2023/01/26 04:49:49;;;;;;;135.33;52.53;;;;;;;;;;5036248;28;20717;-70
2023/01/26 04:52:15;;;;;;;138.67;52.93;;;;;;;;;;5054244;28;20643;-70
2023/01/26 04:54:41;;;;;;;128.00;52.87;;;;;;;;;;5055112;28;20185;-70
2023/01/26 04:57:08;;;;;;;138.90;51.93;;;;;;;;;;5054415;28;20412;-70
2023/01/26 04:59:34;;;;;;;143.57;51.57;;;;;;;;;;5054330;28;20712;-70
2023/01/26 05:02:00;;;;;;;136.10;52.43;;;;;;;;;;5053947;28;20879;-71
2023/01/26 05:04:26;;;;;;;132.33;50.03;;;;;;;;;;5036432;28;20414;-71
2023/01/26 05:06:51;;;;;;;139.67;52.43;;;;;;;;;;5054026;28;20600;-71
2023/01/26 05:09:17;;;;;;;135.77;51.67;;;;;;;;;;5053888;28;20558;-70
2023/01/26 05:11:43;;;;;;;142.07;52.97;;;;;;;;;;5053782;28;20194;-71
2023/01/26 05:14:09;;;;;;;134.90;53.03;;;;;;;;;;5054414;28;20757;-71
2023/01/26 05:16:35;;;;;;;142.80;54.20;;;;;;;;;;5053853;28;20662;-70
2023/01/26 05:19:01;;;;;;;132.37;52.27;;;;;;;;;;5053960;28;20724;-71
2023/01/26 05:21:27;;;;;;;137.77;52.73;;;;;;;;;;5053632;28;20692;-71
2023/01/26 05:23:54;;;;;;;131.97;51.77;;;;;;;;;;5035971;28;20666;-71
2023/01/26 05:26:20;;;;;;;125.57;50.83;;;;;;;;;;5053535;28;20179;-71
2023/01/26 05:28:46;;;;;;;127.43;52.00;;;;;;;;;;5053846;28;20947;-71
2023/01/26 05:31:11;;;;;;;131.33;51.30;;;;;;;;;;5035637;28;20213;-71
2023/01/26 05:33:37;;;;;;;128.53;50.40;;;;;;;;;;5053719;28;20178;-71
2023/01/26 05:36:05;;;;;;;138.73;52.40;;;;;;;;;;5036282;28;20257;-70
2023/01/26 05:38:31;;;;;;;139.17;51.20;;;;;;;;;;5035968;28;20209;-71
2023/01/26 05:40:56;;;;;;;123.73;48.00;;;;;;;;;;5053808;28;20818;-70
2023/01/26 05:43:22;;;;;;;132.93;51.10;;;;;;;;;;5053860;28;20182;-71
2023/01/26 05:45:48;;;;;;;121.77;48.47;;;;;;;;;;5053986;28;20189;-70
2023/01/26 05:48:14;;;;;;;118.10;47.73;;;;;;;;;;5053952;28;20186;-71
2023/01/26 05:50:40;;;;;;;116.00;47.40;;;;;;;;;;5053709;28;20217;-70
2023/01/26 05:53:06;;;;;;;112.40;44.27;;;;;;;;;;5053909;28;20202;-70
2023/01/26 05:55:32;;;;;;;114.33;46.73;;;;;;;;;;5053887;28;20182;-71
2023/01/26 05:57:58;;;;;;;112.13;46.47;;;;;;;;;;5054497;28;20183;-70
2023/01/26 06:00:24;;;;;;;115.40;46.77;;;;;;;;;;5036637;28;20325;-70
2023/01/26 06:02:50;;;;;;;113.87;45.90;;;;;;;;;;5035717;28;20224;-70
2023/01/26 06:05:16;;;;;;;105.30;42.70;;;;;;;;;;5095216;22;20227;-69
2023/01/26 06:07:42;;;;;;;106.47;44.63;;;;;;;;;;5072045;28;20220;-69
2023/01/26 06:10:08;;;;;;;109.10;44.57;;;;;;;;;;5073919;28;20213;-69
2023/01/26 06:12:34;;;;;;;109.87;45.77;;;;;;;;;;5073421;28;20180;-69
2023/01/26 06:15:03;;;;;;;107.67;43.37;;;;;;;;;;5076058;28;20491;-69
2023/01/26 06:17:29;;;;;;;99.73;41.63;;;;;;;;;;5077867;28;20193;-69
2023/01/26 06:19:55;;;;;;;98.33;44.27;;;;;;;;;;5078090;28;20412;-69
2023/01/26 06:22:21;;;;;;;109.70;43.53;;;;;;;;;;5077771;28;20207;-69
2023/01/26 06:24:47;;;;;;;118.03;44.33;;;;;;;;;;5077563;28;20420;-69
2023/01/26 06:27:14;;;;;;;104.13;42.77;;;;;;;;;;5077629;28;20592;-69
2023/01/26 06:29:41;;;;;;;105.90;45.03;;;;;;;;;;5077449;28;20201;-69
2023/01/26 06:32:07;;;;;;;104.90;44.17;;;;;;;;;;5076084;28;20427;-68
2023/01/26 06:34:33;;;;;;;104.23;44.07;;;;;;;;;;5077224;28;20408;-69
2023/01/26 06:36:59;;;;;;;110.20;44.50;;;;;;;;;;5076109;28;20180;-69
2023/01/26 06:39:25;;;;;;;93.77;40.07;;;;;;;;;;5077008;28;20178;-69
2023/01/26 06:41:51;;;;;;;93.70;41.87;;;;;;;;;;5077100;28;20178;-70
2023/01/26 06:44:17;;;;;;;93.33;39.87;;;;;;;;;;5077307;28;20185;-69
2023/01/26 06:46:43;;;;;;;97.40;41.93;;;;;;;;;;5076874;28;20194;-69
2023/01/26 06:49:09;;;;;;;98.67;40.93;;;;;;;;;;5076825;28;20178;-69
2023/01/26 06:51:38;;;;;;;96.33;39.10;;;;;;;;;;5076937;28;20678;-69
2023/01/26 06:54:04;;;;;;;94.70;41.93;;;;;;;;;;5076902;28;20413;-69
2023/01/26 06:56:29;;;;;;;94.03;41.07;;;;;;;;;;5077661;28;20431;-69
2023/01/26 06:58:55;;;;;;;98.20;41.97;;;;;;;;;;5075279;28;20269;-69
2023/01/26 07:01:22;;;;;;;99.07;42.57;;;;;;;;;;5075329;28;20201;-70
2023/01/26 07:03:49;;;;;;;102.27;44.80;;;;;;;;;;5075350;28;20177;-69
2023/01/26 07:06:15;;;;;;;107.23;44.60;;;;;;;;;;5075211;28;20469;-69
2023/01/26 07:08:41;;;;;;;102.33;41.47;;;;;;;;;;5076846;28;20411;-71
2023/01/26 07:11:08;;;;;;;119.83;51.03;;;;;;;;;;5076544;28;20722;-70
2023/01/26 07:13:34;;;;;;;106.53;44.23;;;;;;;;;;5076654;28;20265;-69
2023/01/26 07:16:03;;;;;;;98.27;42.93;;;;;;;;;;5075410;28;20470;-70
2023/01/26 07:18:30;;;;;;;102.10;44.13;;;;;;;;;;5077556;28;20205;-69
2023/01/26 07:21:00;;;;;;;108.50;43.13;;;;;;;;;;5076895;28;20805;-70
2023/01/26 07:23:26;;;;;;;116.13;50.67;;;;;;;;;;5077085;28;20479;-70
2023/01/26 07:25:52;;;;;;;100.60;43.97;;;;;;;;;;5074541;28;20486;-69
2023/01/26 07:28:18;;;;;;;108.47;43.60;;;;;;;;;;5076324;28;20174;-69
2023/01/26 07:30:44;;;;;;;102.20;43.73;;;;;;;;;;5076540;28;20206;-69
2023/01/26 07:33:10;;;;;;;108.10;44.63;;;;;;;;;;5076244;28;20249;-69
2023/01/26 07:35:35;;;;;;;116.33;47.33;;;;;;;;;;5074727;28;20251;-69
2023/01/26 07:38:05;;;;;;;121.37;47.23;;;;;;;;;;5074635;28;20189;-70
2023/01/26 07:40:31;;;;;;;108.80;44.53;;;;;;;;;;5076993;28;20182;-70
2023/01/26 07:42:58;;;;;;;105.73;45.10;;;;;;;;;;5075796;28;20422;-69
2023/01/26 07:45:24;;;;;;;136.03;51.70;;;;;;;;;;5074598;28;20201;-69
2023/01/26 07:47:52;;;;;;;129.90;50.57;;;;;;;;;;5076165;28;20423;-69
2023/01/26 07:50:20;;;;;;;122.30;50.67;;;;;;;;;;5075693;28;20197;-69
2023/01/26 07:52:46;;;;;;;117.20;47.10;;;;;;;;;;5074984;28;20435;-69
2023/01/26 07:55:12;;;;;;;141.43;58.43;;;;;;;;;;5075181;28;20883;-69
2023/01/26 07:57:38;;;;;;;125.57;53.03;;;;;;;;;;5075065;28;20503;-67
2023/01/26 08:00:04;;;;;;;121.67;50.80;;;;;;;;;;5075996;28;20205;-69
2023/01/26 08:02:30;;;;;;;127.53;57.57;;;;;;;;;;5075824;28;20913;-69
2023/01/26 08:04:56;;;;;;;114.17;47.20;;;;;;;;;;5075389;28;20432;-69
2023/01/26 08:07:22;;;;;;;118.43;45.60;;;;;;;;;;5075966;28;20178;-69
2023/01/26 08:09:48;;;;;;;119.63;48.33;;;;;;;;;;5075474;28;20209;-69
2023/01/26 08:12:14;;;;;;;123.20;49.77;;;;;;;;;;5074231;28;20197;-69
2023/01/26 08:14:41;;;;;;;120.17;48.07;;;;;;;;;;5075531;28;20178;-69
2023/01/26 08:17:07;;;;;;;113.37;46.57;;;;;;;;;;5075361;28;20220;-68
2023/01/26 08:19:32;;;;;;;107.33;44.03;;;;;;;;;;5075459;28;20408;-69
2023/01/26 08:21:58;;;;;;;114.77;45.97;;;;;;;;;;5074069;28;20265;-69
2023/01/26 08:24:26;;;;;;;119.60;46.37;;;;;;;;;;5074078;28;20212;-69
2023/01/26 08:26:52;;;;;;;110.17;44.93;;;;;;;;;;5075098;28;20190;-68
2023/01/26 08:29:19;;;;;;;109.17;45.10;;;;;;;;;;5074084;28;20591;-69
2023/01/26 08:31:45;;;;;;;108.97;45.30;;;;;;;;;;5075001;28;20463;-69
2023/01/26 08:34:11;;;;;;;106.60;44.00;;;;;;;;;;5073819;28;20425;-69
2023/01/26 08:36:38;;;;;;;105.03;43.80;;;;;;;;;;5074269;28;20296;-69
2023/01/26 08:39:04;;;;;;;104.30;43.73;;;;;;;;;;5073553;28;20416;-69
2023/01/26 08:41:31;;;;;;;103.83;42.77;;;;;;;;;;5073782;28;20610;-69
2023/01/26 08:43:58;;;;;;;94.87;41.67;;;;;;;;;;5075253;28;20563;-68
2023/01/26 08:46:24;;;;;;;92.50;40.17;;;;;;;;;;5073553;28;20582;-68
2023/01/26 08:48:50;;;;;;;88.47;39.87;;;;;;;;;;5074880;28;20495;-69
2023/01/26 08:51:16;;;;;;;85.23;37.47;;;;;;;;;;5073302;28;20543;-69
2023/01/26 08:53:42;;;;;;;90.67;37.87;;;;;;;;;;5073453;28;20628;-69
2023/01/26 08:56:09;;;;;;;98.77;40.20;;;;;;;;;;5074485;28;20198;-69
2023/01/26 08:58:36;;;;;;;92.00;40.27;;;;;;;;;;5074875;28;20178;-69
2023/01/26 09:01:05;;;;;;;98.07;41.00;;;;;;;;;;5075046;28;20477;-69
2023/01/26 09:03:31;;;;;;;93.53;39.53;;;;;;;;;;5073156;28;20428;-69
2023/01/26 09:06:00;;;;;;;90.03;38.70;;;;;;;;;;5074407;28;20468;-68
2023/01/26 09:08:27;;;;;;;94.70;38.10;;;;;;;;;;5073004;28;20535;-71
2023/01/26 09:10:53;;;;;;;90.33;38.47;;;;;;;;;;5073107;28;20460;-68
2023/01/26 09:13:18;;;;;;;101.33;43.90;;;;;;;;;;5073310;28;20417;-69
2023/01/26 09:15:44;;;;;;;97.00;40.23;;;;;;;;;;5074196;28;20229;-69
2023/01/26 09:18:11;;;;;;;81.87;36.37;;;;;;;;;;5073028;28;20181;-69
2023/01/26 09:20:37;;;;;;;80.00;35.10;;;;;;;;;;5074224;28;20631;-69
2023/01/26 09:23:03;;;;;;;79.40;35.17;;;;;;;;;;5072939;28;20427;-69
2023/01/26 09:25:29;;;;;;;85.00;35.93;;;;;;;;;;5074127;28;20936;-70
2023/01/26 09:27:56;;;;;;;86.73;37.87;;;;;;;;;;5072826;28;20844;-69
2023/01/26 09:30:23;;;;;;;82.70;36.73;;;;;;;;;;5074532;28;20961;-69
2023/01/26 09:32:49;;;;;;;77.57;34.57;;;;;;;;;;5074430;28;20897;-69
2023/01/26 09:35:15;;;;;;;71.80;32.47;;;;;;;;;;5073403;28;20462;-69
2023/01/26 09:37:44;;;;;;;76.10;33.23;;;;;;;;;;5072818;28;20995;-69
2023/01/26 09:40:15;;;;;;;69.83;30.83;;;;;;;;;;5074136;28;20178;-69
2023/01/26 09:42:45;;;;;;;66.73;31.03;;;;;;;;;;5074138;28;20423;-71
2023/01/26 09:45:11;;;;;;;70.93;31.03;;;;;;;;;;5073733;28;20848;-69
2023/01/26 09:47:56;;;;;;;70.70;32.43;;;;;;;;;;5073902;28;20409;-69
2023/01/26 09:50:25;;;;;;;69.30;31.30;;;;;;;;;;5072455;28;20236;-69
2023/01/26 09:52:54;;;;;;;67.47;29.17;;;;;;;;;;5072417;28;20430;-69
2023/01/26 09:55:21;;;;;;;69.63;31.57;;;;;;;;;;5073696;28;20432;-69
2023/01/26 09:57:52;;;;;;;63.87;30.10;;;;;;;;;;5073912;28;20412;-69
2023/01/26 10:00:20;;;;;;;61.53;28.07;;;;;;;;;;5072429;28;20419;-69
2023/01/26 10:03:00;;;;;;;63.13;29.07;;;;;;;;;;5073766;28;20902;-69
2023/01/26 10:05:26;;;;;;;66.33;30.00;;;;;;;;;;5072348;28;20452;-69
2023/01/26 10:07:52;;;;;;;55.63;26.00;;;;;;;;;;5072380;28;20851;-69
2023/01/26 10:10:29;;;;;;;59.23;26.27;;;;;;;;;;5072444;28;20202;-69
2023/01/26 10:12:56;;;;;;;58.60;27.20;;;;;;;;;;5073902;28;20253;-70
2023/01/26 10:15:29;;;;;;;63.07;32.97;;;;;;;;;;5073922;28;20429;-70
2023/01/26 10:17:55;;;;;;;44.67;22.40;;;;;;;;;;5072719;28;20401;-71
2023/01/26 10:20:30;;;;;;;67.00;33.07;;;;;;;;;;5072363;28;20481;-69
2023/01/26 10:23:16;;;;;;;54.57;26.40;;;;;;;;;;5073493;28;20427;-69
2023/01/26 10:25:45;;;;;;;49.27;23.70;;;;;;;;;;5073576;28;20435;-69
2023/01/26 10:28:30;;;;;;;46.43;23.07;;;;;;;;;;5073824;28;20592;-69
2023/01/26 10:30:56;;;;;;;47.27;23.27;;;;;;;;;;5074041;28;20201;-69
2023/01/26 10:33:27;;;;;;;40.40;21.33;;;;;;;;;;5072128;28;20503;-69
2023/01/26 10:35:53;;;;;;;39.77;20.20;;;;;;;;;;5073898;28;20428;-69
2023/01/26 10:38:26;;;;;;;39.93;19.47;;;;;;;;;;5073648;28;20177;-69
2023/01/26 10:40:52;;;;;;;41.90;22.03;;;;;;;;;;5074030;28;20182;-69
2023/01/26 10:43:18;;;;;;;37.90;20.80;;;;;;;;;;5072448;28;20787;-69
2023/01/26 10:45:46;;;;;;;43.63;22.37;;;;;;;;;;5072587;28;20296;-69
2023/01/26 10:48:25;;;;;;;43.80;21.33;;;;;;;;;;5074241;28;20213;-69
2023/01/26 10:50:52;;;;;;;44.47;21.27;;;;;;;;;;5073780;28;20471;-69
2023/01/26 10:53:28;;;;;;;43.47;23.20;;;;;;;;;;5072604;28;20809;-69
2023/01/26 10:55:57;;;;;;;38.97;20.53;;;;;;;;;;5072297;28;20975;-69
2023/01/26 10:58:35;;;;;;;38.70;20.63;;;;;;;;;;5073369;28;20273;-69
2023/01/26 11:01:01;;;;;;;38.50;19.87;;;;;;;;;;5074330;28;20503;-69
2023/01/26 11:03:27;;;;;;;36.83;19.43;;;;;;;;;;5077245;28;20932;-69
2023/01/26 11:06:05;;;;;;;35.73;19.03;;;;;;;;;;5075366;28;20226;-69
2023/01/26 11:08:35;;;;;;;37.93;19.23;;;;;;;;;;5076846;28;20483;-69
2023/01/26 11:11:02;;;;;;;32.70;17.67;;;;;;;;;;5075474;28;20452;-69
2023/01/26 11:13:28;;;;;;;28.93;16.27;;;;;;;;;;5075926;28;20177;-69
2023/01/26 11:16:04;;;;;;;33.47;17.60;;;;;;;;;;5076179;28;20198;-68
2023/01/26 11:18:48;;;;;;;33.97;18.33;;;;;;;;;;5076949;28;20177;-69
2023/01/26 11:21:16;;;;;;;31.77;16.23;;;;;;;;;;5075610;28;20934;-69
2023/01/26 11:24:03;;;;;;;39.80;17.67;;;;;;;;;;5077082;28;20416;-69
2023/01/26 11:26:38;;;;;;;34.07;17.20;;;;;;;;;;5076574;28;20197;-69
2023/01/26 11:29:12;;;;;;;33.77;17.43;;;;;;;;;;5076867;28;20448;-69
2023/01/26 11:31:49;;;;;;;32.70;17.77;;;;;;;;;;5075390;28;20447;-69
2023/01/26 11:34:18;;;;;;;37.50;17.63;;;;;;;;;;5076690;28;20194;-69
2023/01/26 11:36:47;;;;;;;38.50;18.57;;;;;;;;;;5076241;28;20489;-69
2023/01/26 11:39:33;;;;;;;34.63;17.60;;;;;;;;;;5076698;28;20408;-69
2023/01/26 11:42:09;;;;;;;38.07;20.00;;;;;;;;;;5074695;28;20417;-69
2023/01/26 11:44:59;;;;;;;36.40;17.30;;;;;;;;;;5076634;28;20582;-68
2023/01/26 11:47:44;;;;;;;37.87;19.23;;;;;;;;;;5076840;28;20180;-69
2023/01/26 11:50:29;;;;;;;38.73;20.47;;;;;;;;;;5075019;28;20292;-69
2023/01/26 11:53:03;;;;;;;37.00;18.30;;;;;;;;;;5076186;28;20185;-69
2023/01/26 11:55:37;;;;;;;39.60;18.60;;;;;;;;;;5076329;28;20192;-69
2023/01/26 11:58:04;;;;;;;34.07;19.00;;;;;;;;;;5075295;28;20627;-69
2023/01/26 12:00:39;;;;;;;40.63;19.70;;;;;;;;;;5076642;28;20170;-68
2023/01/26 12:03:06;;;;;;;40.93;21.00;;;;;;;;;;5076432;28;20647;-68
2023/01/26 12:05:41;;;;;;;38.53;20.70;;;;;;;;;;5076439;28;20451;-69
2023/01/26 12:08:12;;;;;;;38.10;19.67;;;;;;;;;;5073289;22;20229;-72
2023/01/26 12:10:49;;;;;;;34.80;19.00;;;;;;;;;;5038816;28;20218;-72
2023/01/26 12:13:34;;;;;;;33.17;17.93;;;;;;;;;;5038843;28;20174;-71
2023/01/26 12:16:04;;;;;;;41.37;19.63;;;;;;;;;;5056964;28;20617;-72
2023/01/26 12:18:41;;;;;;;41.17;20.90;;;;;;;;;;5056696;28;20429;-72
2023/01/26 12:21:09;;;;;;;40.03;20.30;;;;;;;;;;5038548;28;20166;-72
2023/01/26 12:23:47;;;;;;;39.23;20.63;;;;;;;;;;5056507;28;20229;-72
2023/01/26 12:26:17;;;;;;;44.07;21.43;;;;;;;;;;5056159;28;20431;-71
2023/01/26 12:28:54;;;;;;;42.57;22.17;;;;;;;;;;5056592;28;20231;-72
2023/01/26 12:31:27;;;;;;;37.53;20.33;;;;;;;;;;5038686;28;20194;-71
2023/01/26 12:33:54;;;;;;;38.90;18.63;;;;;;;;;;5056330;28;20917;-70
2023/01/26 12:36:32;;;;;;;29.53;16.23;;;;;;;;;;5056863;28;20530;-71
2023/01/26 12:39:03;;;;;;;33.33;17.50;;;;;;;;;;5056505;28;20409;-71
2023/01/26 12:41:50;;;;;;;41.40;19.30;;;;;;;;;;5056354;28;20167;-72
2023/01/26 12:44:19;;;;;;;42.17;21.40;;;;;;;;;;5037926;28;20178;-72
2023/01/26 12:46:49;;;;;;;41.60;20.73;;;;;;;;;;5056176;28;20194;-71
2023/01/26 12:49:18;;;;;;;58.83;31.43;;;;;;;;;;5057922;28;20169;-72
2023/01/26 12:51:47;;;;;;;47.37;22.30;;;;;;;;;;5040959;28;20213;-72
2023/01/26 12:54:18;;;;;;;53.53;26.40;;;;;;;;;;5063890;28;20185;-71
2023/01/26 12:56:47;;;;;;;47.73;24.83;;;;;;;;;;5067680;28;20194;-70
2023/01/26 12:59:21;;;;;;;50.60;26.57;;;;;;;;;;5068386;28;20174;-73
2023/01/26 13:01:46;;;;;;;47.80;24.83;;;;;;;;;;5056299;28;20269;-72
2023/01/26 13:04:14;;;;;;;51.07;24.90;;;;;;;;;;5056111;28;20236;-71
2023/01/26 13:06:40;;;;;;;50.27;27.90;;;;;;;;;;5038063;28;20214;-71
2023/01/26 13:09:15;;;;;;;65.50;27.20;;;;;;;;;;5037817;28;20177;-72
2023/01/26 13:11:49;;;;;;;67.03;26.83;;;;;;;;;;5055716;28;20667;-72
2023/01/26 13:14:24;;;;;;;69.60;27.80;;;;;;;;;;5037219;28;20776;-71
2023/01/26 13:16:50;;;;;;;69.90;25.33;;;;;;;;;;5037468;28;20201;-71
2023/01/26 13:19:34;;;;;;;74.93;26.03;;;;;;;;;;5055616;28;20409;-71
2023/01/26 13:22:00;;;;;;;64.33;26.03;;;;;;;;;;5055282;28;20270;-72
2023/01/26 13:24:26;;;;;;;63.77;26.07;;;;;;;;;;5055507;28;20595;-72
2023/01/26 13:26:53;;;;;;;68.07;27.33;;;;;;;;;;5037257;28;20440;-71
2023/01/26 13:29:27;;;;;;;66.80;25.57;;;;;;;;;;5055426;28;20224;-72
2023/01/26 13:31:56;;;;;;;73.80;27.27;;;;;;;;;;5055734;28;20213;-72
2023/01/26 13:34:37;;;;;;;74.87;28.93;;;;;;;;;;5055223;28;20652;-71
2023/01/26 13:37:08;;;;;;;66.27;25.03;;;;;;;;;;5054934;28;20198;-71
2023/01/26 13:39:35;;;;;;;78.47;26.37;;;;;;;;;;5036993;28;20171;-71
2023/01/26 13:42:03;;;;;;;80.23;27.27;;;;;;;;;;5054800;28;20183;-73
2023/01/26 13:44:36;;;;;;;71.73;27.30;;;;;;;;;;5055395;28;20551;-72
2023/01/26 13:47:06;;;;;;;70.90;26.63;;;;;;;;;;5037195;28;20210;-70
2023/01/26 13:49:40;;;;;;;80.00;29.13;;;;;;;;;;5055378;28;20678;-72
2023/01/26 13:52:22;;;;;;;96.80;31.37;;;;;;;;;;5054495;28;20179;-73
2023/01/26 13:54:49;;;;;;;83.40;29.77;;;;;;;;;;5054680;28;20174;-71
2023/01/26 13:57:22;;;;;;;90.83;29.53;;;;;;;;;;5037188;28;20551;-72
2023/01/26 13:59:50;;;;;;;98.67;34.93;;;;;;;;;;5054786;28;20175;-70
2023/01/26 14:02:23;;;;;;;85.30;30.93;;;;;;;;;;5055116;28;20179;-71
2023/01/26 14:04:54;;;;;;;96.07;32.37;;;;;;;;;;5054470;28;20178;-71
2023/01/26 14:07:21;;;;;;;84.87;30.90;;;;;;;;;;5036436;28;20594;-72
2023/01/26 14:09:49;;;;;;;88.43;30.57;;;;;;;;;;5055114;28;20649;-72
2023/01/26 14:12:22;;;;;;;86.77;31.07;;;;;;;;;;5054622;28;20171;-72
2023/01/26 14:14:49;;;;;;;86.83;29.40;;;;;;;;;;5054441;28;20722;-71
2023/01/26 14:17:29;;;;;;;92.27;32.40;;;;;;;;;;5054252;28;20751;-73
2023/01/26 14:19:56;;;;;;;107.03;40.97;;;;;;;;;;5036560;28;20213;-73
2023/01/26 14:22:22;;;;;;;101.03;32.27;;;;;;;;;;5055641;28;20224;-71
2023/01/26 14:24:49;;;;;;;88.87;32.60;;;;;;;;;;5038425;28;20660;-72
2023/01/26 14:27:24;;;;;;;91.33;31.20;;;;;;;;;;5038050;28;20206;-71
2023/01/26 14:29:50;;;;;;;86.83;27.87;;;;;;;;;;5054556;28;20212;-72
2023/01/26 14:32:16;;;;;;;84.97;28.37;;;;;;;;;;5036745;28;20190;-73
2023/01/26 14:34:52;;;;;;;77.57;27.13;;;;;;;;;;5054840;28;20694;-73
2023/01/26 14:37:19;;;;;;;93.90;28.67;;;;;;;;;;5058532;28;20204;-70
2023/01/26 14:39:46;;;;;;;85.13;27.73;;;;;;;;;;5058122;28;20183;-72
2023/01/26 14:42:16;;;;;;;82.20;27.67;;;;;;;;;;5058380;28;20179;-69
2023/01/26 14:44:43;;;;;;;86.30;28.67;;;;;;;;;;5058302;28;20561;-72
2023/01/26 14:47:13;;;;;;;97.03;26.57;;;;;;;;;;5058422;28;20198;-73
2023/01/26 14:49:55;;;;;;;84.67;28.40;;;;;;;;;;5058224;28;20254;-71
2023/01/26 14:52:26;;;;;;;84.50;27.73;;;;;;;;;;5040382;28;20167;-70
2023/01/26 14:54:53;;;;;;;81.57;30.73;;;;;;;;;;5040156;28;20183;-72
2023/01/26 14:57:21;;;;;;;89.97;30.50;;;;;;;;;;5039947;28;20226;-71
2023/01/26 14:59:49;;;;;;;84.60;28.70;;;;;;;;;;5039764;28;20265;-70
2023/01/26 15:02:18;;;;;;;80.73;29.23;;;;;;;;;;5039691;28;20174;-73
2023/01/26 15:04:50;;;;;;;91.27;28.07;;;;;;;;;;5057438;28;20205;-72
2023/01/26 15:07:34;;;;;;;70.93;25.50;;;;;;;;;;5040767;28;20299;-71
2023/01/26 15:10:00;;;;;;;86.63;29.60;;;;;;;;;;5041958;28;20202;-72